Time;durP1;ratioP1;P1;durP2;ratioP2;P2;SDS_P1;SDS_P2;PMS_P1;PMS_P2;Temp;Humidity;BMP_temperature;BMP_pressure;BME280_temperature;BME280_humidity;BME280_pressure;Samples;Min_cycle;Max_cycle;Signal;HPM_P1;HPM_P2
2022/06/20 00:00:15;;;;;;;5.45;1.90;;;;;;;;;;5091702;28;20531;-55
2022/06/20 00:02:44;;;;;;;6.78;1.48;;;;;;;;;;5092236;28;20370;-52
2022/06/20 00:05:14;;;;;;;5.50;1.60;;;;;;;;;;5091222;28;20100;-53
2022/06/20 00:07:41;;;;;;;4.70;1.75;;;;;;;;;;5091989;28;20482;-51
2022/06/20 00:10:08;;;;;;;7.30;1.80;;;;;;;;;;5091355;28;20487;-51
2022/06/20 00:12:35;;;;;;;6.60;2.08;;;;;;;;;;5094786;28;20035;-52
2022/06/20 00:15:02;;;;;;;5.47;2.05;;;;;;;;;;5095267;28;20027;-51
2022/06/20 00:17:29;;;;;;;3.47;1.45;;;;;;;;;;5095753;28;20028;-50
2022/06/20 00:19:56;;;;;;;6.32;1.83;;;;;;;;;;5094789;28;20043;-50
2022/06/20 00:22:23;;;;;;;4.45;1.65;;;;;;;;;;5095860;28;20063;-48
2022/06/20 00:24:51;;;;;;;4.32;1.65;;;;;;;;;;5095763;28;20024;-53
2022/06/20 00:27:18;;;;;;;6.25;2.00;;;;;;;;;;5095043;28;20560;-53
2022/06/20 00:29:45;;;;;;;5.32;1.60;;;;;;;;;;5094895;28;20056;-50
2022/06/20 00:32:12;;;;;;;5.55;1.90;;;;;;;;;;5095178;28;20073;-48
2022/06/20 00:34:39;;;;;;;8.27;1.75;;;;;;;;;;5095530;28;20031;-51
2022/06/20 00:37:06;;;;;;;4.68;1.45;;;;;;;;;;5094620;28;20039;-50
2022/06/20 00:39:34;;;;;;;3.90;1.60;;;;;;;;;;5095276;28;20096;-50
2022/06/20 00:42:02;;;;;;;3.63;1.60;;;;;;;;;;5094753;28;20485;-52
2022/06/20 00:44:31;;;;;;;4.90;1.80;;;;;;;;;;5095255;28;20032;-50
2022/06/20 00:47:01;;;;;;;5.45;1.98;;;;;;;;;;5095322;28;20115;-52
2022/06/20 00:49:34;;;;;;;6.57;1.80;;;;;;;;;;5094294;28;20043;-50
2022/06/20 00:52:03;;;;;;;5.22;1.98;;;;;;;;;;5095262;28;20036;-51
2022/06/20 00:54:48;;;;;;;8.82;2.00;;;;;;;;;;5094125;28;20032;-47
2022/06/20 00:57:34;;;;;;;8.90;1.52;;;;;;;;;;5076415;28;20482;-52
2022/06/20 01:00:07;;;;;;;4.88;1.80;;;;;;;;;;5094466;28;20482;-55
2022/06/20 01:02:36;;;;;;;6.00;2.17;;;;;;;;;;5094882;28;20038;-51
2022/06/20 01:05:24;;;;;;;7.00;1.90;;;;;;;;;;5094304;28;20447;-49
2022/06/20 01:08:12;;;;;;;5.25;1.80;;;;;;;;;;5093933;28;20024;-53
2022/06/20 01:11:02;;;;;;;5.78;2.28;;;;;;;;;;5094816;28;20523;-53
2022/06/20 01:13:29;;;;;;;7.88;2.22;;;;;;;;;;5081729;28;20073;-52
2022/06/20 01:15:59;;;;;;;9.13;2.20;;;;;;;;;;5094482;28;20039;-50
2022/06/20 01:18:31;;;;;;;8.88;2.13;;;;;;;;;;5094398;28;20074;-54
2022/06/20 01:20:59;;;;;;;7.97;2.43;;;;;;;;;;5094596;28;20438;-51
2022/06/20 01:23:44;;;;;;;7.05;2.20;;;;;;;;;;5094141;28;20111;-50
2022/06/20 01:26:13;;;;;;;7.03;2.30;;;;;;;;;;5093814;28;20565;-53
2022/06/20 01:28:41;;;;;;;5.72;2.28;;;;;;;;;;5094301;28;20498;-55
2022/06/20 01:31:10;;;;;;;4.78;2.58;;;;;;;;;;5092577;28;20127;-50
2022/06/20 01:33:37;;;;;;;4.35;1.90;;;;;;;;;;5093317;28;20048;-50
2022/06/20 01:38:50;;;;;;;3.97;2.30;;;;;;;;;;5093785;28;20454;-53
2022/06/20 01:44:04;;;;;;;6.43;2.80;;;;;;;;;;5093479;28;20039;-52
2022/06/20 01:46:32;;;;;;;6.13;2.28;;;;;;;;;;5094162;28;20028;-55
2022/06/20 01:49:01;;;;;;;5.55;2.50;;;;;;;;;;5093725;28;20051;-55
2022/06/20 01:51:31;;;;;;;4.93;2.50;;;;;;;;;;5093790;28;20103;-51
2022/06/20 01:53:58;;;;;;;7.53;2.50;;;;;;;;;;5093030;28;20028;-51
2022/06/20 01:56:27;;;;;;;7.47;2.33;;;;;;;;;;5094098;28;20031;-51
2022/06/20 01:59:00;;;;;;;6.70;2.70;;;;;;;;;;5093463;28;20386;-50
2022/06/20 02:01:30;;;;;;;4.40;2.30;;;;;;;;;;5093652;28;20032;-53
2022/06/20 02:03:57;;;;;;;5.03;2.00;;;;;;;;;;5093058;28;20084;-55
2022/06/20 02:06:24;;;;;;;9.20;2.70;;;;;;;;;;5093015;28;20024;-51
2022/06/20 02:08:52;;;;;;;6.07;2.50;;;;;;;;;;5093262;28;20028;-53
2022/06/20 02:11:26;;;;;;;4.88;2.30;;;;;;;;;;5092843;28;20032;-52
2022/06/20 02:13:55;;;;;;;5.03;2.65;;;;;;;;;;5093924;28;20031;-53
2022/06/20 02:16:22;;;;;;;7.32;2.55;;;;;;;;;;5092733;28;20032;-54
2022/06/20 02:18:52;;;;;;;5.18;2.22;;;;;;;;;;5093315;28;20047;-52
2022/06/20 02:21:22;;;;;;;4.88;2.55;;;;;;;;;;5092766;28;20032;-56
2022/06/20 02:23:52;;;;;;;6.03;2.70;;;;;;;;;;5092858;28;20393;-54
2022/06/20 02:26:21;;;;;;;4.25;2.50;;;;;;;;;;5093672;28;20082;-54
2022/06/20 02:28:50;;;;;;;6.25;2.45;;;;;;;;;;5092758;28;20529;-53
2022/06/20 02:31:18;;;;;;;6.65;2.30;;;;;;;;;;5092674;28;20044;-52
2022/06/20 02:33:47;;;;;;;6.07;2.35;;;;;;;;;;5092703;28;20502;-49
2022/06/20 02:36:14;;;;;;;8.32;2.67;;;;;;;;;;5092867;28;20502;-51
2022/06/20 02:38:42;;;;;;;5.13;2.10;;;;;;;;;;5092545;28;20117;-50
2022/06/20 02:41:11;;;;;;;5.70;2.55;;;;;;;;;;5092289;28;20040;-50
2022/06/20 02:43:43;;;;;;;7.60;2.60;;;;;;;;;;5092873;28;20462;-49
2022/06/20 02:46:12;;;;;;;5.78;2.30;;;;;;;;;;5092467;28;20116;-53
2022/06/20 02:48:41;;;;;;;6.57;2.53;;;;;;;;;;5092563;28;20108;-49
2022/06/20 02:51:09;;;;;;;5.93;2.47;;;;;;;;;;5091640;28;20043;-54
2022/06/20 02:53:39;;;;;;;5.55;2.20;;;;;;;;;;5074521;28;20040;-57
2022/06/20 02:56:07;;;;;;;4.72;2.63;;;;;;;;;;5092385;28;20559;-53
2022/06/20 02:58:36;;;;;;;7.85;2.40;;;;;;;;;;5092079;28;20035;-50
2022/06/20 03:01:13;;;;;;;8.00;2.45;;;;;;;;;;5091874;28;20028;-51
2022/06/20 03:03:43;;;;;;;4.55;2.10;;;;;;;;;;5092077;28;20042;-53
2022/06/20 03:06:13;;;;;;;4.22;1.95;;;;;;;;;;5092217;28;20024;-51
2022/06/20 03:08:40;;;;;;;6.30;2.38;;;;;;;;;;5091930;28;20425;-50
2022/06/20 03:11:07;;;;;;;5.30;2.38;;;;;;;;;;5092125;28;20036;-52
2022/06/20 03:13:35;;;;;;;3.33;2.10;;;;;;;;;;5092668;28;20048;-53
2022/06/20 03:16:03;;;;;;;6.50;2.25;;;;;;;;;;5091902;28;20036;-53
2022/06/20 03:18:30;;;;;;;4.97;2.17;;;;;;;;;;5092523;28;20024;-52
2022/06/20 03:20:57;;;;;;;5.20;2.35;;;;;;;;;;5091941;28;20032;-51
2022/06/20 03:23:29;;;;;;;7.68;2.83;;;;;;;;;;5092005;28;20051;-49
2022/06/20 03:25:57;;;;;;;7.07;2.13;;;;;;;;;;5091743;28;20024;-51
2022/06/20 03:28:25;;;;;;;6.53;1.98;;;;;;;;;;5092441;28;20383;-53
2022/06/20 03:30:52;;;;;;;4.53;2.30;;;;;;;;;;5091771;28;20040;-48
2022/06/20 03:33:21;;;;;;;4.78;1.70;;;;;;;;;;5092342;28;20139;-52
2022/06/20 03:35:54;;;;;;;4.90;2.10;;;;;;;;;;5091408;28;20047;-55
2022/06/20 03:38:23;;;;;;;4.53;2.03;;;;;;;;;;5073145;28;20028;-50
2022/06/20 03:40:50;;;;;;;4.28;1.83;;;;;;;;;;5092379;28;20028;-52
2022/06/20 03:43:19;;;;;;;5.85;2.13;;;;;;;;;;5092065;28;20461;-53
2022/06/20 03:46:16;;;;;;;4.88;2.00;;;;;;;;;;5091733;28;20043;-52
2022/06/20 03:49:15;;;;;;;3.72;2.05;;;;;;;;;;5075335;28;20055;-52
2022/06/20 03:52:07;;;;;;;4.10;1.80;;;;;;;;;;5040467;28;20043;-50
2022/06/20 03:54:56;;;;;;;3.25;1.70;;;;;;;;;;5091904;28;20521;-54
2022/06/20 03:57:26;;;;;;;7.00;2.20;;;;;;;;;;5095857;28;20115;-51
2022/06/20 04:00:05;;;;;;;4.47;2.05;;;;;;;;;;5096237;28;20486;-54
2022/06/20 04:02:36;;;;;;;4.68;1.80;;;;;;;;;;5095407;28;20089;-54
2022/06/20 04:05:09;;;;;;;3.60;1.90;;;;;;;;;;5096056;28;20120;-50
2022/06/20 04:07:35;;;;;;;;;;;;;;;;;;5095380;28;20071;-52
2022/06/20 04:12:56;;;;;;;5.50;2.00;;;;;;;;;;5095624;28;20539;-55
2022/06/20 04:15:26;;;;;;;4.68;1.80;;;;;;;;;;5095620;28;20053;-50
2022/06/20 04:20:50;;;;;;;5.03;2.08;;;;;;;;;;5096090;28;20402;-52
2022/06/20 04:23:20;;;;;;;5.25;1.80;;;;;;;;;;5095306;28;20055;-49
2022/06/20 04:25:57;;;;;;;5.93;2.00;;;;;;;;;;5095411;28;20032;-53
2022/06/20 04:28:33;;;;;;;2.78;1.67;;;;;;;;;;5094852;28;20023;-50
2022/06/20 04:31:06;;;;;;;3.70;1.73;;;;;;;;;;5094650;28;20039;-50
2022/06/20 04:33:40;;;;;;;5.20;1.75;;;;;;;;;;5095428;28;20118;-51
2022/06/20 04:36:15;;;;;;;4.40;2.30;;;;;;;;;;5095689;28;20038;-52
2022/06/20 04:38:48;;;;;;;3.85;1.75;;;;;;;;;;5094560;28;20028;-52
2022/06/20 04:41:18;;;;;;;6.18;1.90;;;;;;;;;;5094456;28;20106;-56
2022/06/20 04:44:04;;;;;;;6.07;1.90;;;;;;;;;;5095706;28;20056;-53
2022/06/20 04:46:34;;;;;;;3.85;1.50;;;;;;;;;;5095268;28;20028;-51
2022/06/20 04:49:02;;;;;;;4.25;1.58;;;;;;;;;;5095231;28;20024;-55
2022/06/20 04:51:33;;;;;;;4.35;1.85;;;;;;;;;;5094046;28;20054;-55
2022/06/20 04:54:01;;;;;;;8.45;2.05;;;;;;;;;;5094398;28;20038;-52
2022/06/20 04:56:28;;;;;;;3.08;1.58;;;;;;;;;;5094690;28;20032;-51
2022/06/20 04:59:00;;;;;;;5.82;1.85;;;;;;;;;;5094325;28;20036;-50
2022/06/20 05:01:28;;;;;;;5.72;1.75;;;;;;;;;;5095172;28;20443;-52
2022/06/20 05:03:58;;;;;;;3.78;1.67;;;;;;;;;;5094913;28;20103;-52
2022/06/20 05:06:29;;;;;;;4.68;1.60;;;;;;;;;;5093866;28;20070;-51
2022/06/20 05:09:01;;;;;;;4.00;1.80;;;;;;;;;;5094591;28;20039;-54
2022/06/20 05:11:54;;;;;;;7.90;1.83;;;;;;;;;;5094503;28;20474;-52
2022/06/20 05:14:24;;;;;;;3.42;1.52;;;;;;;;;;5090715;28;20104;-51
2022/06/20 05:16:52;;;;;;;2.30;1.35;;;;;;;;;;5093836;28;20042;-52
2022/06/20 05:19:22;;;;;;;4.28;1.75;;;;;;;;;;5094420;28;20127;-51
2022/06/20 05:21:53;;;;;;;2.35;1.20;;;;;;;;;;5094493;28;20024;-56
2022/06/20 05:24:25;;;;;;;4.22;1.70;;;;;;;;;;5093912;28;20028;-54
2022/06/20 05:26:54;;;;;;;4.00;1.75;;;;;;;;;;5094590;28;20040;-54
2022/06/20 05:29:30;;;;;;;3.67;1.60;;;;;;;;;;5093463;28;20086;-53
2022/06/20 05:31:59;;;;;;;3.72;1.42;;;;;;;;;;5093972;28;20032;-56
2022/06/20 05:34:29;;;;;;;5.47;1.77;;;;;;;;;;5093766;28;20052;-54
2022/06/20 05:36:56;;;;;;;2.30;1.50;;;;;;;;;;5093913;28;20028;-48
2022/06/20 05:39:23;;;;;;;3.70;1.60;;;;;;;;;;5075240;28;20040;-55
2022/06/20 05:41:50;;;;;;;4.75;1.45;;;;;;;;;;5094047;28;20597;-50
2022/06/20 05:44:17;;;;;;;2.55;1.40;;;;;;;;;;5093850;28;20055;-56
2022/06/20 05:46:48;;;;;;;3.60;1.33;;;;;;;;;;5093657;28;20036;-52
2022/06/20 05:49:26;;;;;;;4.13;1.33;;;;;;;;;;5094091;28;20020;-54
2022/06/20 05:51:55;;;;;;;4.75;1.73;;;;;;;;;;5093491;28;20123;-54
2022/06/20 05:54:35;;;;;;;3.67;2.03;;;;;;;;;;5094025;28;20040;-50
2022/06/20 05:57:07;;;;;;;2.88;1.65;;;;;;;;;;5092736;28;20118;-49
2022/06/20 05:59:54;;;;;;;3.85;1.70;;;;;;;;;;5093904;28;20047;-52
2022/06/20 06:02:29;;;;;;;2.10;1.42;;;;;;;;;;5092709;28;20036;-52
2022/06/20 06:05:06;;;;;;;2.58;1.70;;;;;;;;;;5093243;28;20024;-51
2022/06/20 06:07:39;;;;;;;3.85;1.70;;;;;;;;;;5093095;28;20486;-49
2022/06/20 06:10:32;;;;;;;4.28;2.00;;;;;;;;;;5092307;28;20028;-51
2022/06/20 06:13:05;;;;;;;3.28;1.65;;;;;;;;;;5089058;28;20067;-55
2022/06/20 06:15:38;;;;;;;2.10;1.45;;;;;;;;;;5093328;28;20043;-49
2022/06/20 06:18:08;;;;;;;1.50;1.10;;;;;;;;;;5093303;28;20057;-52
2022/06/20 06:20:36;;;;;;;2.97;1.40;;;;;;;;;;5092910;28;20551;-49
2022/06/20 06:23:07;;;;;;;3.17;1.30;;;;;;;;;;5094785;28;20113;-51
2022/06/20 06:25:37;;;;;;;2.97;1.42;;;;;;;;;;5093641;28;20036;-50
2022/06/20 06:28:06;;;;;;;4.35;1.60;;;;;;;;;;5093139;28;20482;-49
2022/06/20 06:33:33;;;;;;;4.72;1.98;;;;;;;;;;5060411;22;20406;-60
2022/06/20 06:36:06;;;;;;;2.15;1.25;;;;;;;;;;5053940;28;20025;-60
2022/06/20 06:38:37;;;;;;;2.58;1.45;;;;;;;;;;5052538;28;20029;-60
2022/06/20 06:41:07;;;;;;;4.70;1.55;;;;;;;;;;5052719;28;20045;-60
2022/06/20 06:43:40;;;;;;;2.15;1.40;;;;;;;;;;5052916;28;20040;-60
2022/06/20 06:46:12;;;;;;;3.80;1.50;;;;;;;;;;5052515;28;20108;-60
2022/06/20 06:48:42;;;;;;;3.50;1.80;;;;;;;;;;5052958;28;20094;-60
2022/06/20 06:51:18;;;;;;;2.03;1.40;;;;;;;;;;5052317;28;20036;-60
2022/06/20 06:53:47;;;;;;;2.25;1.42;;;;;;;;;;5052265;28;20116;-60
2022/06/20 06:56:17;;;;;;;1.60;1.10;;;;;;;;;;5052548;28;20029;-60
2022/06/20 06:58:44;;;;;;;2.72;1.30;;;;;;;;;;5052272;28;20052;-60
2022/06/20 07:01:26;;;;;;;2.45;1.38;;;;;;;;;;5052700;28;20478;-60
2022/06/20 07:03:56;;;;;;;3.30;1.20;;;;;;;;;;5052418;28;20029;-60
2022/06/20 07:06:32;;;;;;;3.30;1.40;;;;;;;;;;5051945;28;20036;-60
2022/06/20 07:09:08;;;;;;;3.88;1.10;;;;;;;;;;5052233;28;20083;-60
2022/06/20 07:11:36;;;;;;;2.75;1.20;;;;;;;;;;5052142;28;20076;-60
2022/06/20 07:14:07;;;;;;;2.38;1.15;;;;;;;;;;5052250;28;20375;-60
2022/06/20 07:16:52;;;;;;;4.18;1.17;;;;;;;;;;5051907;28;20043;-60
2022/06/20 07:19:19;;;;;;;2.47;1.13;;;;;;;;;;5051545;28;20437;-60
2022/06/20 07:21:46;;;;;;;1.05;0.80;;;;;;;;;;5051985;28;20118;-60
2022/06/20 07:24:15;;;;;;;3.97;1.50;;;;;;;;;;5052140;28;20037;-60
2022/06/20 07:26:44;;;;;;;1.73;1.23;;;;;;;;;;5052200;28;20025;-60
2022/06/20 07:29:21;;;;;;;3.40;1.35;;;;;;;;;;5051985;28;20040;-60
2022/06/20 07:31:53;;;;;;;1.73;1.15;;;;;;;;;;5051102;28;20052;-60
2022/06/20 07:34:23;;;;;;;2.30;1.45;;;;;;;;;;5052085;28;20364;-60
2022/06/20 07:36:55;;;;;;;1.40;1.00;;;;;;;;;;5051614;28;20491;-60
2022/06/20 07:39:22;;;;;;;;;;;;;;;;;;5052721;28;20398;-60
2022/06/20 07:42:15;;;;;;;1.73;1.20;;;;;;;;;;5051188;28;20418;-60
2022/06/20 07:44:42;;;;;;;;;;;;;;;;;;5048444;28;20037;-60
2022/06/20 07:47:16;;;;;;;1.42;1.10;;;;;;;;;;5051873;28;20306;-60
2022/06/20 07:49:49;;;;;;;2.75;1.10;;;;;;;;;;5051507;28;20025;-60
2022/06/20 07:52:22;;;;;;;1.90;1.02;;;;;;;;;;5051859;28;20032;-60
2022/06/20 07:54:50;;;;;;;1.30;1.00;;;;;;;;;;5051215;28;20065;-60
2022/06/20 07:57:22;;;;;;;1.85;1.10;;;;;;;;;;5051971;28;20401;-60
2022/06/20 07:59:53;;;;;;;2.22;1.20;;;;;;;;;;5051948;28;20120;-60
2022/06/20 08:02:23;;;;;;;2.50;1.10;;;;;;;;;;5051890;28;20475;-60
2022/06/20 08:04:52;;;;;;;2.22;1.27;;;;;;;;;;5051245;28;20486;-60
2022/06/20 08:07:41;;;;;;;2.10;1.17;;;;;;;;;;5050951;28;20021;-60
2022/06/20 08:10:20;;;;;;;2.17;1.08;;;;;;;;;;5034370;28;20025;-60
2022/06/20 08:12:54;;;;;;;2.08;1.00;;;;;;;;;;5051620;28;20036;-60
2022/06/20 08:15:26;;;;;;;2.45;1.20;;;;;;;;;;5051353;28;20041;-60
2022/06/20 08:17:54;;;;;;;2.28;1.25;;;;;;;;;;5051851;28;20046;-60
2022/06/20 08:20:23;;;;;;;2.00;1.10;;;;;;;;;;5051728;28;20040;-60
2022/06/20 08:22:53;;;;;;;1.98;1.05;;;;;;;;;;5051489;28;20090;-60
2022/06/20 08:25:22;;;;;;;2.22;0.93;;;;;;;;;;5051122;28;20029;-60
2022/06/20 08:27:57;;;;;;;2.13;1.10;;;;;;;;;;5051773;28;20029;-60
2022/06/20 08:30:29;;;;;;;2.22;1.08;;;;;;;;;;5051619;28;20498;-60
2022/06/20 08:33:06;;;;;;;1.35;1.10;;;;;;;;;;5052819;28;20045;-60
2022/06/20 08:35:43;;;;;;;1.70;1.00;;;;;;;;;;5055359;28;20486;-60
2022/06/20 08:38:14;;;;;;;1.38;1.00;;;;;;;;;;5054991;28;20029;-60
2022/06/20 08:40:49;;;;;;;1.52;1.00;;;;;;;;;;5054539;28;20091;-60
2022/06/20 08:43:16;;;;;;;2.45;0.85;;;;;;;;;;5055239;28;20108;-60
2022/06/20 08:45:49;;;;;;;1.70;1.00;;;;;;;;;;5054290;28;20468;-60
2022/06/20 08:48:35;;;;;;;2.92;1.10;;;;;;;;;;5054279;28;20032;-60
2022/06/20 08:51:20;;;;;;;1.67;1.08;;;;;;;;;;5055019;28;20060;-60
2022/06/20 08:54:05;;;;;;;3.40;1.02;;;;;;;;;;5054508;28;20128;-60
2022/06/20 08:56:39;;;;;;;1.42;0.80;;;;;;;;;;5054787;28;20108;-60
2022/06/20 08:59:08;;;;;;;2.90;1.10;;;;;;;;;;5055013;28;20060;-60
2022/06/20 09:01:45;;;;;;;2.13;1.13;;;;;;;;;;5036474;28;20405;-60
2022/06/20 09:04:21;;;;;;;1.42;0.90;;;;;;;;;;5053943;28;20458;-60
2022/06/20 09:07:06;;;;;;;1.23;1.05;;;;;;;;;;5036742;28;20462;-60
2022/06/20 09:09:33;;;;;;;3.20;0.90;;;;;;;;;;5054360;28;20022;-60
2022/06/20 09:12:12;;;;;;;1.83;0.98;;;;;;;;;;5053687;28;20025;-60
2022/06/20 09:14:39;;;;;;;2.17;0.90;;;;;;;;;;5054572;28;20041;-60
2022/06/20 09:17:21;;;;;;;1.80;0.90;;;;;;;;;;5053856;28;20116;-60
2022/06/20 09:19:51;;;;;;;1.17;1.08;;;;;;;;;;5054238;28;20058;-60
2022/06/20 09:22:44;;;;;;;2.25;1.33;;;;;;;;;;5053609;28;20506;-60
2022/06/20 09:25:11;;;;;;;;;;;;;;;;;;5023819;28;20044;-60
2022/06/20 09:27:44;;;;;;;2.03;1.20;;;;;;;;;;5054225;28;19905;-60
2022/06/20 09:30:18;;;;;;;2.40;1.00;;;;;;;;;;5053991;28;20569;-60
2022/06/20 09:33:03;;;;;;;1.40;1.08;;;;;;;;;;5053326;28;20379;-60
2022/06/20 09:35:30;;;;;;;1.33;0.82;;;;;;;;;;5054300;28;20064;-60
2022/06/20 09:37:57;;;;;;;1.52;0.63;;;;;;;;;;5053873;28;20029;-60
2022/06/20 09:40:33;;;;;;;1.85;0.85;;;;;;;;;;5053330;28;20040;-60
2022/06/20 09:43:09;;;;;;;1.15;0.70;;;;;;;;;;5053649;28;20071;-60
2022/06/20 09:45:45;;;;;;;1.23;0.90;;;;;;;;;;5053187;28;20418;-60
2022/06/20 09:48:18;;;;;;;2.35;0.80;;;;;;;;;;5053527;28;20033;-60
2022/06/20 09:50:50;;;;;;;1.77;0.93;;;;;;;;;;5035505;28;20036;-60
2022/06/20 09:53:35;;;;;;;0.98;0.88;;;;;;;;;;5054021;28;20039;-60
2022/06/20 09:56:07;;;;;;;1.85;0.95;;;;;;;;;;5053195;28;20033;-60
2022/06/20 09:58:43;;;;;;;1.27;1.00;;;;;;;;;;5053810;28;20123;-60
2022/06/20 10:01:29;;;;;;;2.80;1.13;;;;;;;;;;5053160;28;20074;-60
2022/06/20 10:04:11;;;;;;;1.48;0.90;;;;;;;;;;5053420;28;20036;-60
2022/06/20 10:06:46;;;;;;;1.45;0.90;;;;;;;;;;5053707;28;20107;-60
2022/06/20 10:09:23;;;;;;;1.60;0.95;;;;;;;;;;5052706;28;20455;-60
2022/06/20 10:11:52;;;;;;;1.20;0.80;;;;;;;;;;5053441;28;20040;-60
2022/06/20 10:14:26;;;;;;;1.67;1.02;;;;;;;;;;5052629;28;20037;-60
2022/06/20 10:16:58;;;;;;;2.08;0.95;;;;;;;;;;5053721;28;20107;-60
2022/06/20 10:19:35;;;;;;;1.77;0.88;;;;;;;;;;5052469;28;20041;-60
2022/06/20 10:22:02;;;;;;;1.48;0.80;;;;;;;;;;5053375;28;20039;-60
2022/06/20 10:24:46;;;;;;;1.02;0.90;;;;;;;;;;5052626;28;20037;-60
2022/06/20 10:27:19;;;;;;;1.90;0.98;;;;;;;;;;5053309;28;20028;-60
2022/06/20 10:29:59;;;;;;;1.38;0.90;;;;;;;;;;5052591;28;20111;-61
2022/06/20 10:32:26;;;;;;;1.23;0.90;;;;;;;;;;5052516;28;20079;-60
2022/06/20 10:35:11;;;;;;;1.58;0.90;;;;;;;;;;5053085;28;20090;-60
2022/06/20 10:38:04;;;;;;;3.00;0.90;;;;;;;;;;5052295;28;20028;-60
2022/06/20 10:40:35;;;;;;;2.13;0.82;;;;;;;;;;5050117;28;20053;-60
2022/06/20 10:43:02;;;;;;;2.15;0.95;;;;;;;;;;5052823;28;20103;-60
2022/06/20 10:45:34;;;;;;;1.50;0.75;;;;;;;;;;5052996;28;20025;-60
2022/06/20 10:48:20;;;;;;;1.02;0.80;;;;;;;;;;5052045;28;20021;-60
2022/06/20 10:50:57;;;;;;;3.53;0.90;;;;;;;;;;5052189;28;20039;-60
2022/06/20 10:53:33;;;;;;;2.72;1.00;;;;;;;;;;5052452;28;20040;-60
2022/06/20 10:56:06;;;;;;;1.67;0.82;;;;;;;;;;5051724;28;20028;-60
2022/06/20 10:58:51;;;;;;;1.00;0.70;;;;;;;;;;5052033;28;20041;-60
2022/06/20 11:01:18;;;;;;;1.63;0.90;;;;;;;;;;5033938;28;20414;-60
2022/06/20 11:03:45;;;;;;;1.23;0.80;;;;;;;;;;5052473;28;20025;-60
2022/06/20 11:06:30;;;;;;;0.70;0.60;;;;;;;;;;5051898;28;20037;-60
2022/06/20 11:09:13;;;;;;;1.02;0.90;;;;;;;;;;5052013;28;20021;-60
2022/06/20 11:11:39;;;;;;;;;;;;;;;;;;5052297;28;20029;-60
2022/06/20 11:14:12;;;;;;;1.27;0.80;;;;;;;;;;5052259;28;20358;-60
2022/06/20 11:16:47;;;;;;;0.95;0.60;;;;;;;;;;5052490;28;20445;-60
2022/06/20 11:19:25;;;;;;;1.52;0.80;;;;;;;;;;5051645;28;20040;-60
2022/06/20 11:22:10;;;;;;;1.75;0.70;;;;;;;;;;5052318;28;20114;-60
2022/06/20 11:24:59;;;;;;;1.20;0.80;;;;;;;;;;5051559;28;20033;-60
2022/06/20 11:27:44;;;;;;;1.30;0.75;;;;;;;;;;5051646;28;20403;-60
2022/06/20 11:30:24;;;;;;;1.05;0.68;;;;;;;;;;5052156;28;20048;-60
2022/06/20 11:33:09;;;;;;;3.20;0.90;;;;;;;;;;5051339;28;20061;-60
2022/06/20 11:35:56;;;;;;;0.98;0.85;;;;;;;;;;5051483;28;20033;-60
2022/06/20 11:38:31;;;;;;;1.67;0.90;;;;;;;;;;5051866;28;20390;-60
2022/06/20 11:41:01;;;;;;;2.13;0.90;;;;;;;;;;5051454;28;20036;-60
2022/06/20 11:43:37;;;;;;;1.75;0.80;;;;;;;;;;5052050;28;20112;-60
2022/06/20 11:46:16;;;;;;;1.88;0.80;;;;;;;;;;5051964;28;20033;-60
2022/06/20 11:48:52;;;;;;;2.50;0.82;;;;;;;;;;5051088;28;20422;-60
2022/06/20 11:51:19;;;;;;;1.63;0.70;;;;;;;;;;5051961;28;20021;-60
2022/06/20 11:54:01;;;;;;;1.42;0.80;;;;;;;;;;5051115;28;20037;-60
2022/06/20 11:56:34;;;;;;;2.47;0.90;;;;;;;;;;5051936;28;20033;-60
2022/06/20 11:59:07;;;;;;;1.52;0.80;;;;;;;;;;5051483;28;20040;-60
2022/06/20 12:01:41;;;;;;;1.20;0.90;;;;;;;;;;5051879;28;20037;-60
2022/06/20 12:04:24;;;;;;;1.85;1.05;;;;;;;;;;5030595;28;20144;-60
2022/06/20 12:06:51;;;;;;;1.63;0.90;;;;;;;;;;5032103;28;20095;-60
2022/06/20 12:09:18;;;;;;;1.65;0.80;;;;;;;;;;5035900;28;20084;-60
2022/06/20 12:12:03;;;;;;;2.30;0.93;;;;;;;;;;5035819;28;20033;-60
2022/06/20 12:14:53;;;;;;;1.67;0.90;;;;;;;;;;5035358;28;20025;-60
2022/06/20 12:17:23;;;;;;;2.25;1.00;;;;;;;;;;4989658;28;20041;-60
2022/06/20 12:25:30;;;;;;;3.13;1.10;;;;;;;;;;5036206;28;20048;-60
2022/06/20 12:27:57;;;;;;;1.88;0.90;;;;;;;;;;5035314;28;20111;-60
2022/06/20 12:30:24;;;;;;;1.38;0.93;;;;;;;;;;5034907;28;20078;-60
2022/06/20 12:32:54;;;;;;;1.33;0.85;;;;;;;;;;5033307;28;20095;-60
2022/06/20 12:35:27;;;;;;;4.07;1.23;;;;;;;;;;5035430;28;20390;-60
2022/06/20 12:38:19;;;;;;;3.58;1.33;;;;;;;;;;5016796;28;20025;-60
2022/06/20 12:40:53;;;;;;;2.78;1.10;;;;;;;;;;5030731;28;20048;-60
2022/06/20 12:43:36;;;;;;;2.92;1.05;;;;;;;;;;5034163;28;20029;-60
2022/06/20 12:46:18;;;;;;;2.17;1.23;;;;;;;;;;5034427;28;20543;-60
2022/06/20 12:48:54;;;;;;;2.58;1.08;;;;;;;;;;5034880;28;20025;-60
2022/06/20 12:51:31;;;;;;;1.98;1.00;;;;;;;;;;5035987;28;20036;-60
2022/06/20 12:54:01;;;;;;;4.40;1.10;;;;;;;;;;5035363;28;20079;-60
2022/06/20 12:56:34;;;;;;;2.90;1.15;;;;;;;;;;5034579;28;20040;-60
2022/06/20 12:59:19;;;;;;;5.68;1.20;;;;;;;;;;5034696;28;20025;-60
2022/06/20 13:02:00;;;;;;;2.55;1.30;;;;;;;;;;5034289;28;20144;-60
2022/06/20 13:04:30;;;;;;;2.90;1.25;;;;;;;;;;5034932;28;20068;-60
2022/06/20 13:07:00;;;;;;;3.58;1.17;;;;;;;;;;5034303;28;20040;-60
2022/06/20 13:09:45;;;;;;;2.35;1.10;;;;;;;;;;5034751;28;20030;-60
2022/06/20 13:12:15;;;;;;;3.30;1.20;;;;;;;;;;5034614;28;20091;-60
2022/06/20 13:14:45;;;;;;;2.40;1.13;;;;;;;;;;5033894;28;20404;-60
2022/06/20 13:17:23;;;;;;;2.03;1.20;;;;;;;;;;5033854;28;20065;-60
2022/06/20 13:20:20;;;;;;;2.83;1.08;;;;;;;;;;5034073;28;20383;-60
2022/06/20 13:22:56;;;;;;;2.88;1.23;;;;;;;;;;5033848;28;20022;-60
2022/06/20 13:25:23;;;;;;;2.22;1.10;;;;;;;;;;5034629;28;20023;-60
2022/06/20 13:27:55;;;;;;;3.33;1.27;;;;;;;;;;5033668;28;20052;-60
2022/06/20 13:30:40;;;;;;;1.92;1.20;;;;;;;;;;5034071;28;20026;-60
2022/06/20 13:33:17;;;;;;;1.92;1.13;;;;;;;;;;5033751;28;20431;-60
2022/06/20 13:35:53;;;;;;;2.47;1.10;;;;;;;;;;5034353;28;20030;-60
2022/06/20 13:38:43;;;;;;;2.60;1.15;;;;;;;;;;5033308;28;20057;-60
2022/06/20 13:41:19;;;;;;;3.88;1.15;;;;;;;;;;4987933;28;20068;-60
2022/06/20 13:44:03;;;;;;;2.75;1.45;;;;;;;;;;5034128;28;20365;-60
2022/06/20 13:46:30;;;;;;;3.10;1.58;;;;;;;;;;5033530;28;20100;-60
2022/06/20 13:48:57;;;;;;;7.75;1.27;;;;;;;;;;5028225;28;20823;-60
2022/06/20 13:51:30;;;;;;;7.82;1.25;;;;;;;;;;5026067;28;20057;-59
2022/06/20 13:54:15;;;;;;;5.93;1.60;;;;;;;;;;5030554;28;20033;-60
2022/06/20 13:56:56;;;;;;;6.55;1.20;;;;;;;;;;5025594;28;20438;-61
2022/06/20 13:59:29;;;;;;;4.63;1.33;;;;;;;;;;5024503;28;20110;-60
2022/06/20 14:01:55;;;;;;;8.48;2.15;;;;;;;;;;5018657;28;20040;-60
2022/06/20 14:04:23;;;;;;;12.48;2.08;;;;;;;;;;5031161;28;20040;-63
2022/06/20 14:07:01;;;;;;;8.93;1.52;;;;;;;;;;5032573;28;20026;-62
2022/06/20 14:09:39;;;;;;;8.68;1.80;;;;;;;;;;5016131;28;20041;-60
2022/06/20 14:12:08;;;;;;;17.83;2.15;;;;;;;;;;5013218;28;20017;-63
2022/06/20 14:14:38;;;;;;;6.78;1.95;;;;;;;;;;5020677;28;20018;-62
2022/06/20 14:17:25;;;;;;;13.98;2.42;;;;;;;;;;5016989;28;20547;-61
2022/06/20 14:19:57;;;;;;;6.93;1.90;;;;;;;;;;5011884;28;20473;-64
2022/06/20 14:22:24;;;;;;;11.15;1.58;;;;;;;;;;5022441;28;20037;-60
2022/06/20 14:24:52;;;;;;;10.38;1.85;;;;;;;;;;5031535;28;20038;-60
2022/06/20 14:27:24;;;;;;;10.57;1.83;;;;;;;;;;5030686;28;20136;-60
2022/06/20 14:30:18;;;;;;;8.02;1.67;;;;;;;;;;5030912;28;20498;-59
2022/06/20 14:32:48;;;;;;;8.45;1.88;;;;;;;;;;5025622;28;20053;-59
2022/06/20 14:35:24;;;;;;;7.57;1.98;;;;;;;;;;5028574;28;20029;-59
2022/06/20 14:37:53;;;;;;;9.95;1.90;;;;;;;;;;5030595;28;20484;-59
2022/06/20 14:40:28;;;;;;;4.60;1.30;;;;;;;;;;5030297;28;20075;-59
2022/06/20 14:43:05;;;;;;;15.77;1.70;;;;;;;;;;5028527;28;20041;-59
2022/06/20 14:45:34;;;;;;;10.98;2.28;;;;;;;;;;5025809;28;20025;-59
2022/06/20 14:48:04;;;;;;;17.33;2.22;;;;;;;;;;5030494;28;20037;-59
2022/06/20 14:50:35;;;;;;;7.50;1.90;;;;;;;;;;5028201;28;20432;-58
2022/06/20 14:53:31;;;;;;;15.95;2.40;;;;;;;;;;5030856;28;20030;-59
2022/06/20 14:56:05;;;;;;;10.57;2.00;;;;;;;;;;5015767;28;20034;-59
2022/06/20 14:58:51;;;;;;;14.75;2.42;;;;;;;;;;5027085;28;20033;-59
2022/06/20 15:01:22;;;;;;;19.20;2.38;;;;;;;;;;5027688;28;20025;-59
2022/06/20 15:03:53;;;;;;;17.85;3.00;;;;;;;;;;5027644;28;20060;-62
2022/06/20 15:06:45;;;;;;;28.20;2.92;;;;;;;;;;5017412;28;20037;-61
2022/06/20 15:09:19;;;;;;;20.83;3.00;;;;;;;;;;5010351;28;20048;-61
2022/06/20 15:12:04;;;;;;;27.98;2.70;;;;;;;;;;5013031;28;20040;-61
2022/06/20 15:14:33;;;;;;;23.60;2.63;;;;;;;;;;5011920;28;20236;-61
2022/06/20 15:17:09;;;;;;;21.55;2.78;;;;;;;;;;5011590;28;20029;-62
2022/06/20 15:19:42;;;;;;;18.80;2.95;;;;;;;;;;5010998;28;20034;-61
2022/06/20 15:22:17;;;;;;;18.80;2.70;;;;;;;;;;5025355;28;20026;-60
2022/06/20 15:24:51;;;;;;;25.75;2.88;;;;;;;;;;5025265;28;20033;-60
2022/06/20 15:27:39;;;;;;;24.75;2.80;;;;;;;;;;5022205;28;20026;-60
2022/06/20 15:30:18;;;;;;;27.30;4.47;;;;;;;;;;5017802;28;20034;-60
2022/06/20 15:32:46;;;;;;;18.35;3.88;;;;;;;;;;5027612;28;20065;-60
2022/06/20 15:35:14;;;;;;;21.90;4.55;;;;;;;;;;5024971;28;20045;-60
2022/06/20 15:37:41;;;;;;;19.65;3.78;;;;;;;;;;5020049;28;20566;-60
2022/06/20 15:40:19;;;;;;;25.20;4.10;;;;;;;;;;5021697;28;20042;-61